Bethel, ME

12:49 PM EDT on May 27, 2015 (GMT -0400)
Berlin Municipal | | Change Station
CLOSE
Current Station
Airport
Location: Berlin,
Elevation: 1158 ft
Nearby Weather Stations

Elev 1158 ft 44.58 °N, 71.18 °W | Updated 57 minutes ago

Clear
Clear
86 °F
Feels Like 87 °F
N
14
Wind Variable Wind from SW
Gusts 20 mph

Today
High -- | Low -- °F
--% Chance of Precip.
Yesterday
High -- | Low -- °F
Precip. -- in
5:05 AM 8:15 PM
Waxing Gibbous, 68% visible
Pressure 30.04 in
Visibility 10.0 miles
Clouds Scattered Clouds 4900 ft
Mostly Cloudy 6000 ft
Heat Index 87 °F
Dew Point 63 °F
Humidity 46%
Rainfall 0.09 in
Snow Depth Not available.
UV 6 out of 12
Pollen 8.70 out of 12
Air Quality Not available.
Flu Activity Local Activity
METAR KBML 271552Z AUTO 22012G17KT 10SM SCT049 BKN060 30/17 A3005 RMK AO2 SLP171 T03000172

More Conditions Fewer Conditions

Pressure 30.04 in
Visibility 10.0 miles
Clouds Scattered Clouds 4900 ft
Mostly Cloudy 6000 ft
Heat Index 87 °F
Dew Point 63 °F
Humidity 46%
Rainfall 0.09 in
Snow Depth Not available.
UV 6 out of 12
Pollen 8.70 out of 12
Air Quality Not available.
Flu Activity Local Activity
METAR KBML 271552Z AUTO 22012G17KT 10SM SCT049 BKN060 30/17 A3005 RMK AO2 SLP171 T03000172

More Conditions Fewer Conditions

10-Day Weather Forecast

Almanac

Astronomy

May. 27, 2015 Rise Set
Actual Time
Civil Twilight
Nautical Twilight
Astronomical Twilight
Moon
Length of Visible Light
Length of Day
Tomorrow will be .
, % of the Moon is Illuminated

Today's Extremes

State Highs State Lows

Community

WunderPhotos

Upload Photos

1,824,720 photos uploaded!

WunderBlogs® & News

Nearby

Air Quality

  Air Quality AQ Index Pollutant
Not available.

Snow Depth

Station Depth Elevation

Earthquake Activity

City Distance Mag. Time & Date
Minimum magnitude displayed is 2.5.

Coastal Water Temperatures

Place Temperature

Stations

Nearby Weather Stations

Station Location Temp. Windchill Dew Point Humidity Wind Precip. Elev Updated Type